sensor_id;sensor_type;location;lat;lon;timestamp;noise_LAeq;noise_LA_min;noise_LA_max;noise_LA01;noise_LA95
58303;Laerm;44109;52.398;7.024;2023-12-14T00:01:40;44.21;31.50;57.05;;
58303;Laerm;44109;52.398;7.024;2023-12-14T00:04:08;44.43;31.61;59.83;;
58303;Laerm;44109;52.398;7.024;2023-12-14T00:06:36;43.97;31.14;56.44;;
58303;Laerm;44109;52.398;7.024;2023-12-14T00:09:03;43.85;31.33;57.17;;
58303;Laerm;44109;52.398;7.024;2023-12-14T00:11:34;43.83;30.94;57.12;;
58303;Laerm;44109;52.398;7.024;2023-12-14T00:14:04;43.74;31.17;57.42;;
58303;Laerm;44109;52.398;7.024;2023-12-14T00:16:32;44.11;31.95;57.08;;
58303;Laerm;44109;52.398;7.024;2023-12-14T00:19:00;44.15;31.46;57.13;;
58303;Laerm;44109;52.398;7.024;2023-12-14T00:21:27;44.29;31.90;57.33;;
58303;Laerm;44109;52.398;7.024;2023-12-14T00:23:55;44.11;30.90;57.39;;
58303;Laerm;44109;52.398;7.024;2023-12-14T00:26:23;43.95;31.72;57.24;;
58303;Laerm;44109;52.398;7.024;2023-12-14T00:28:51;43.93;31.32;56.69;;
58303;Laerm;44109;52.398;7.024;2023-12-14T00:31:19;44.08;31.71;57.97;;
58303;Laerm;44109;52.398;7.024;2023-12-14T00:33:46;44.11;30.96;59.98;;
58303;Laerm;44109;52.398;7.024;2023-12-14T00:36:18;43.97;31.95;56.95;;
58303;Laerm;44109;52.398;7.024;2023-12-14T00:38:45;44.30;31.61;57.02;;
58303;Laerm;44109;52.398;7.024;2023-12-14T00:41:13;43.90;30.93;57.17;;
58303;Laerm;44109;52.398;7.024;2023-12-14T00:43:41;43.99;31.44;57.31;;
58303;Laerm;44109;52.398;7.024;2023-12-14T00:46:10;44.04;31.27;57.03;;
58303;Laerm;44109;52.398;7.024;2023-12-14T00:48:37;43.95;30.74;57.21;;
58303;Laerm;44109;52.398;7.024;2023-12-14T00:51:05;43.94;31.98;57.28;;
58303;Laerm;44109;52.398;7.024;2023-12-14T00:53:33;44.02;32.25;57.12;;
58303;Laerm;44109;52.398;7.024;2023-12-14T00:56:00;43.87;31.00;56.96;;
58303;Laerm;44109;52.398;7.024;2023-12-14T00:58:28;43.86;31.31;57.05;;
58303;Laerm;44109;52.398;7.024;2023-12-14T01:00:55;43.87;31.26;57.05;;
58303;Laerm;44109;52.398;7.024;2023-12-14T01:03:24;43.76;31.46;57.14;;
58303;Laerm;44109;52.398;7.024;2023-12-14T01:05:52;43.84;30.81;57.17;;
58303;Laerm;44109;52.398;7.024;2023-12-14T01:08:19;43.80;30.91;57.26;;
58303;Laerm;44109;52.398;7.024;2023-12-14T01:10:47;43.75;30.78;57.18;;
58303;Laerm;44109;52.398;7.024;2023-12-14T01:13:14;43.87;31.05;57.24;;
58303;Laerm;44109;52.398;7.024;2023-12-14T01:15:42;45.04;31.00;73.82;;
58303;Laerm;44109;52.398;7.024;2023-12-14T01:18:09;43.87;30.82;57.10;;
58303;Laerm;44109;52.398;7.024;2023-12-14T01:20:38;43.84;31.15;57.14;;
58303;Laerm;44109;52.398;7.024;2023-12-14T01:23:06;43.84;31.28;57.26;;
58303;Laerm;44109;52.398;7.024;2023-12-14T01:25:35;43.79;31.34;56.77;;
58303;Laerm;44109;52.398;7.024;2023-12-14T01:28:03;43.76;31.45;56.77;;
58303;Laerm;44109;52.398;7.024;2023-12-14T01:30:31;44.10;31.25;58.72;;
58303;Laerm;44109;52.398;7.024;2023-12-14T01:32:58;44.24;30.99;60.41;;
58303;Laerm;44109;52.398;7.024;2023-12-14T01:35:26;43.89;31.71;57.21;;
58303;Laerm;44109;52.398;7.024;2023-12-14T01:37:57;43.79;31.39;57.19;;
58303;Laerm;44109;52.398;7.024;2023-12-14T01:40:24;43.91;30.68;57.25;;
58303;Laerm;44109;52.398;7.024;2023-12-14T01:42:52;43.85;31.44;57.00;;
58303;Laerm;44109;52.398;7.024;2023-12-14T01:45:19;44.20;31.11;56.68;;
58303;Laerm;44109;52.398;7.024;2023-12-14T01:47:47;43.81;31.27;57.06;;
58303;Laerm;44109;52.398;7.024;2023-12-14T01:50:15;44.11;31.27;57.16;;
58303;Laerm;44109;52.398;7.024;2023-12-14T01:52:43;43.94;31.16;57.23;;
58303;Laerm;44109;52.398;7.024;2023-12-14T01:55:12;43.85;31.00;56.38;;
58303;Laerm;44109;52.398;7.024;2023-12-14T01:57:40;43.91;31.08;57.25;;
58303;Laerm;44109;52.398;7.024;2023-12-14T02:00:21;43.70;30.92;56.61;;
58303;Laerm;44109;52.398;7.024;2023-12-14T02:02:52;43.66;31.02;57.31;;
58303;Laerm;44109;52.398;7.024;2023-12-14T02:05:20;43.86;31.15;57.12;;
58303;Laerm;44109;52.398;7.024;2023-12-14T02:07:48;43.88;31.29;57.11;;
58303;Laerm;44109;52.398;7.024;2023-12-14T02:10:18;43.79;30.81;57.33;;
58303;Laerm;44109;52.398;7.024;2023-12-14T02:12:45;44.00;31.59;56.99;;
58303;Laerm;44109;52.398;7.024;2023-12-14T02:15:13;43.83;31.30;57.19;;
58303;Laerm;44109;52.398;7.024;2023-12-14T02:17:40;43.74;31.04;56.94;;
58303;Laerm;44109;52.398;7.024;2023-12-14T02:20:08;43.79;31.09;57.24;;
58303;Laerm;44109;52.398;7.024;2023-12-14T02:22:48;43.44;31.19;57.14;;
58303;Laerm;44109;52.398;7.024;2023-12-14T02:25:16;43.81;31.18;57.96;;
58303;Laerm;44109;52.398;7.024;2023-12-14T02:27:44;43.93;31.47;57.26;;
58303;Laerm;44109;52.398;7.024;2023-12-14T02:30:13;43.87;31.72;57.18;;
58303;Laerm;44109;52.398;7.024;2023-12-14T02:32:41;43.99;31.80;56.75;;
58303;Laerm;44109;52.398;7.024;2023-12-14T02:35:08;43.80;31.28;56.94;;
58303;Laerm;44109;52.398;7.024;2023-12-14T02:37:38;43.78;31.52;57.19;;
58303;Laerm;44109;52.398;7.024;2023-12-14T02:40:08;43.93;31.93;57.20;;
58303;Laerm;44109;52.398;7.024;2023-12-14T02:42:36;43.72;31.14;57.11;;
58303;Laerm;44109;52.398;7.024;2023-12-14T02:45:05;43.88;30.98;56.75;;
58303;Laerm;44109;52.398;7.024;2023-12-14T02:47:33;43.73;31.22;56.85;;
58303;Laerm;44109;52.398;7.024;2023-12-14T02:50:01;43.72;30.99;57.07;;
58303;Laerm;44109;52.398;7.024;2023-12-14T02:52:28;43.80;31.23;57.22;;
58303;Laerm;44109;52.398;7.024;2023-12-14T02:54:57;43.68;31.34;56.55;;
58303;Laerm;44109;52.398;7.024;2023-12-14T02:57:25;43.85;31.30;56.54;;
58303;Laerm;44109;52.398;7.024;2023-12-14T02:59:53;43.81;31.18;57.14;;
58303;Laerm;44109;52.398;7.024;2023-12-14T03:02:21;44.04;31.16;60.74;;
58303;Laerm;44109;52.398;7.024;2023-12-14T03:04:48;43.82;31.12;57.08;;
58303;Laerm;44109;52.398;7.024;2023-12-14T03:07:16;43.82;31.15;57.32;;
58303;Laerm;44109;52.398;7.024;2023-12-14T03:09:45;43.95;32.31;56.77;;
58303;Laerm;44109;52.398;7.024;2023-12-14T03:12:14;44.06;31.70;56.87;;
58303;Laerm;44109;52.398;7.024;2023-12-14T03:14:41;44.26;31.84;57.51;;
58303;Laerm;44109;52.398;7.024;2023-12-14T03:17:09;44.20;31.89;57.06;;
58303;Laerm;44109;52.398;7.024;2023-12-14T03:19:39;44.11;31.42;57.27;;
58303;Laerm;44109;52.398;7.024;2023-12-14T03:22:08;44.14;30.99;57.01;;
58303;Laerm;44109;52.398;7.024;2023-12-14T03:24:36;44.04;31.12;57.23;;
58303;Laerm;44109;52.398;7.024;2023-12-14T03:27:04;43.98;30.78;56.78;;
58303;Laerm;44109;52.398;7.024;2023-12-14T03:29:33;43.91;31.05;56.80;;
58303;Laerm;44109;52.398;7.024;2023-12-14T03:32:01;44.06;31.09;57.16;;
58303;Laerm;44109;52.398;7.024;2023-12-14T03:34:28;43.91;30.79;57.13;;
58303;Laerm;44109;52.398;7.024;2023-12-14T03:36:56;43.98;31.11;57.20;;
58303;Laerm;44109;52.398;7.024;2023-12-14T03:39:23;43.89;30.89;57.27;;
58303;Laerm;44109;52.398;7.024;2023-12-14T03:41:51;43.80;31.04;57.15;;
58303;Laerm;44109;52.398;7.024;2023-12-14T03:44:18;43.96;31.20;57.47;;
58303;Laerm;44109;52.398;7.024;2023-12-14T03:46:47;43.93;31.22;56.90;;
58303;Laerm;44109;52.398;7.024;2023-12-14T03:49:15;43.97;31.78;57.00;;
58303;Laerm;44109;52.398;7.024;2023-12-14T03:51:43;43.90;31.56;57.14;;
58303;Laerm;44109;52.398;7.024;2023-12-14T03:54:10;43.82;30.73;56.88;;
58303;Laerm;44109;52.398;7.024;2023-12-14T03:56:38;43.82;31.21;57.05;;
58303;Laerm;44109;52.398;7.024;2023-12-14T03:59:06;43.84;31.77;57.24;;
58303;Laerm;44109;52.398;7.024;2023-12-14T04:01:33;43.97;31.10;56.89;;
58303;Laerm;44109;52.398;7.024;2023-12-14T04:04:04;44.10;31.36;57.06;;
58303;Laerm;44109;52.398;7.024;2023-12-14T04:06:31;44.16;31.61;57.37;;
58303;Laerm;44109;52.398;7.024;2023-12-14T04:08:59;43.98;31.31;57.16;;
58303;Laerm;44109;52.398;7.024;2023-12-14T04:11:26;44.13;31.16;56.92;;
58303;Laerm;44109;52.398;7.024;2023-12-14T04:13:55;43.99;31.97;57.23;;
58303;Laerm;44109;52.398;7.024;2023-12-14T04:16:23;44.18;31.30;57.29;;
58303;Laerm;44109;52.398;7.024;2023-12-14T04:18:50;44.00;30.68;57.33;;
58303;Laerm;44109;52.398;7.024;2023-12-14T04:21:19;43.96;31.76;57.12;;
58303;Laerm;44109;52.398;7.024;2023-12-14T04:23:47;44.03;31.65;57.01;;
58303;Laerm;44109;52.398;7.024;2023-12-14T04:26:14;44.35;33.57;57.50;;
58303;Laerm;44109;52.398;7.024;2023-12-14T04:28:42;44.04;32.58;57.34;;
58303;Laerm;44109;52.398;7.024;2023-12-14T04:31:10;44.07;32.15;56.94;;
58303;Laerm;44109;52.398;7.024;2023-12-14T04:33:38;43.92;32.23;56.90;;
58303;Laerm;44109;52.398;7.024;2023-12-14T04:36:07;43.87;31.87;57.08;;
58303;Laerm;44109;52.398;7.024;2023-12-14T04:38:36;44.18;32.54;57.43;;
58303;Laerm;44109;52.398;7.024;2023-12-14T04:41:03;44.12;32.73;57.18;;
58303;Laerm;44109;52.398;7.024;2023-12-14T04:43:31;44.02;32.00;57.16;;
58303;Laerm;44109;52.398;7.024;2023-12-14T04:45:59;44.43;32.49;57.42;;
58303;Laerm;44109;52.398;7.024;2023-12-14T04:48:26;44.52;32.75;57.34;;
58303;Laerm;44109;52.398;7.024;2023-12-14T04:50:54;44.53;31.07;57.27;;
58303;Laerm;44109;52.398;7.024;2023-12-14T04:53:21;44.83;32.87;56.84;;
58303;Laerm;44109;52.398;7.024;2023-12-14T04:55:50;44.64;32.60;57.12;;
58303;Laerm;44109;52.398;7.024;2023-12-14T04:58:17;44.37;31.44;57.21;;
58303;Laerm;44109;52.398;7.024;2023-12-14T05:00:45;44.42;31.99;57.02;;
58303;Laerm;44109;52.398;7.024;2023-12-14T05:03:13;44.35;32.10;57.16;;
58303;Laerm;44109;52.398;7.024;2023-12-14T05:05:40;44.18;32.11;57.14;;
58303;Laerm;44109;52.398;7.024;2023-12-14T05:08:08;44.14;32.48;57.07;;
58303;Laerm;44109;52.398;7.024;2023-12-14T05:10:35;44.13;31.72;57.28;;
58303;Laerm;44109;52.398;7.024;2023-12-14T05:13:04;44.28;33.43;57.31;;
58303;Laerm;44109;52.398;7.024;2023-12-14T05:15:33;44.29;32.18;57.21;;
58303;Laerm;44109;52.398;7.024;2023-12-14T05:18:01;44.38;33.20;57.12;;
58303;Laerm;44109;52.398;7.024;2023-12-14T05:20:28;44.28;33.16;57.34;;
58303;Laerm;44109;52.398;7.024;2023-12-14T05:22:56;44.61;33.40;57.25;;
58303;Laerm;44109;52.398;7.024;2023-12-14T05:25:23;44.72;34.58;57.46;;
58303;Laerm;44109;52.398;7.024;2023-12-14T05:27:51;44.42;33.81;57.40;;
58303;Laerm;44109;52.398;7.024;2023-12-14T05:30:20;44.62;33.04;58.65;;
58303;Laerm;44109;52.398;7.024;2023-12-14T05:32:47;44.48;32.88;62.59;;
58303;Laerm;44109;52.398;7.024;2023-12-14T05:35:15;44.23;32.79;57.25;;
58303;Laerm;44109;52.398;7.024;2023-12-14T05:37:42;44.38;33.46;57.24;;
58303;Laerm;44109;52.398;7.024;2023-12-14T05:40:11;44.62;33.55;57.44;;
58303;Laerm;44109;52.398;7.024;2023-12-14T05:42:39;44.85;35.04;56.91;;
58303;Laerm;44109;52.398;7.024;2023-12-14T05:45:07;44.37;34.53;57.44;;
58303;Laerm;44109;52.398;7.024;2023-12-14T05:47:36;44.16;33.56;57.35;;
58303;Laerm;44109;52.398;7.024;2023-12-14T05:50:05;44.46;32.79;56.73;;
58303;Laerm;44109;52.398;7.024;2023-12-14T05:52:35;44.28;32.91;57.24;;
58303;Laerm;44109;52.398;7.024;2023-12-14T05:55:04;44.31;32.74;57.35;;
58303;Laerm;44109;52.398;7.024;2023-12-14T05:57:32;44.30;33.35;57.01;;
58303;Laerm;44109;52.398;7.024;2023-12-14T05:59:59;44.38;33.84;57.34;;
58303;Laerm;44109;52.398;7.024;2023-12-14T06:02:27;44.65;33.97;57.40;;
58303;Laerm;44109;52.398;7.024;2023-12-14T06:04:56;44.91;33.66;57.61;;
58303;Laerm;44109;52.398;7.024;2023-12-14T06:07:24;44.80;33.80;57.39;;
58303;Laerm;44109;52.398;7.024;2023-12-14T06:09:51;44.61;34.06;57.06;;
58303;Laerm;44109;52.398;7.024;2023-12-14T06:12:19;44.46;33.41;57.35;;
58303;Laerm;44109;52.398;7.024;2023-12-14T06:14:46;45.53;34.01;64.33;;
58303;Laerm;44109;52.398;7.024;2023-12-14T06:17:14;44.65;34.58;56.59;;
58303;Laerm;44109;52.398;7.024;2023-12-14T06:19:42;44.44;34.13;56.66;;
58303;Laerm;44109;52.398;7.024;2023-12-14T06:22:11;45.00;35.44;57.06;;
58303;Laerm;44109;52.398;7.024;2023-12-14T06:24:38;44.78;34.01;57.46;;
58303;Laerm;44109;52.398;7.024;2023-12-14T06:27:07;44.30;33.23;57.37;;
58303;Laerm;44109;52.398;7.024;2023-12-14T06:29:34;44.46;33.17;57.72;;
58303;Laerm;44109;52.398;7.024;2023-12-14T06:32:02;44.56;34.56;57.55;;
58303;Laerm;44109;52.398;7.024;2023-12-14T06:34:30;45.30;34.73;64.54;;
58303;Laerm;44109;52.398;7.024;2023-12-14T06:36:57;44.47;34.17;57.47;;
58303;Laerm;44109;52.398;7.024;2023-12-14T06:39:27;44.64;33.53;60.73;;
58303;Laerm;44109;52.398;7.024;2023-12-14T06:41:55;44.45;33.76;56.67;;
58303;Laerm;44109;52.398;7.024;2023-12-14T06:44:22;44.44;34.70;56.95;;
58303;Laerm;44109;52.398;7.024;2023-12-14T06:46:51;44.71;33.93;57.48;;
58303;Laerm;44109;52.398;7.024;2023-12-14T06:49:19;44.13;33.43;57.44;;
58303;Laerm;44109;52.398;7.024;2023-12-14T06:51:46;44.32;33.42;57.64;;
58303;Laerm;44109;52.398;7.024;2023-12-14T06:54:14;44.94;34.70;57.57;;
58303;Laerm;44109;52.398;7.024;2023-12-14T06:56:43;46.03;34.80;69.53;;
58303;Laerm;44109;52.398;7.024;2023-12-14T06:59:10;45.14;34.39;59.60;;
58303;Laerm;44109;52.398;7.024;2023-12-14T07:01:38;46.05;33.55;61.80;;
58303;Laerm;44109;52.398;7.024;2023-12-14T07:04:05;47.06;33.62;61.81;;
58303;Laerm;44109;52.398;7.024;2023-12-14T07:06:34;50.45;35.63;65.85;;
58303;Laerm;44109;52.398;7.024;2023-12-14T07:09:02;46.47;35.81;62.27;;
58303;Laerm;44109;52.398;7.024;2023-12-14T07:11:30;45.09;34.43;61.29;;
58303;Laerm;44109;52.398;7.024;2023-12-14T07:13:59;45.01;35.16;57.01;;
58303;Laerm;44109;52.398;7.024;2023-12-14T07:16:26;44.58;33.05;61.28;;
58303;Laerm;44109;52.398;7.024;2023-12-14T07:18:54;47.68;36.64;64.31;;
58303;Laerm;44109;52.398;7.024;2023-12-14T07:21:21;48.99;35.16;60.24;;
58303;Laerm;44109;52.398;7.024;2023-12-14T07:23:49;46.44;36.26;64.81;;
58303;Laerm;44109;52.398;7.024;2023-12-14T07:26:16;46.59;35.85;59.99;;
58303;Laerm;44109;52.398;7.024;2023-12-14T07:28:44;45.54;33.85;57.37;;
58303;Laerm;44109;52.398;7.024;2023-12-14T07:31:13;49.06;35.36;64.88;;
58303;Laerm;44109;52.398;7.024;2023-12-14T07:33:40;47.70;37.36;64.55;;
58303;Laerm;44109;52.398;7.024;2023-12-14T07:36:08;46.20;37.84;64.63;;
58303;Laerm;44109;52.398;7.024;2023-12-14T07:38:36;46.19;37.67;60.02;;
58303;Laerm;44109;52.398;7.024;2023-12-14T07:41:04;45.87;34.75;59.03;;
58303;Laerm;44109;52.398;7.024;2023-12-14T07:43:31;47.26;37.31;58.20;;
58303;Laerm;44109;52.398;7.024;2023-12-14T07:45:59;45.95;36.09;59.29;;
58303;Laerm;44109;52.398;7.024;2023-12-14T07:48:28;45.22;33.57;57.17;;
58303;Laerm;44109;52.398;7.024;2023-12-14T07:50:56;44.76;34.55;57.18;;
58303;Laerm;44109;52.398;7.024;2023-12-14T07:53:23;44.65;34.25;56.82;;
58303;Laerm;44109;52.398;7.024;2023-12-14T07:55:51;44.83;34.41;58.33;;
58303;Laerm;44109;52.398;7.024;2023-12-14T07:58:18;46.03;33.86;67.20;;
58303;Laerm;44109;52.398;7.024;2023-12-14T08:00:46;44.69;34.06;57.67;;
58303;Laerm;44109;52.398;7.024;2023-12-14T08:03:13;44.82;34.82;57.70;;
58303;Laerm;44109;52.398;7.024;2023-12-14T08:05:42;50.27;33.31;68.44;;
58303;Laerm;44109;52.398;7.024;2023-12-14T08:08:10;49.99;33.65;69.10;;
58303;Laerm;44109;52.398;7.024;2023-12-14T08:10:37;45.55;34.87;58.49;;
58303;Laerm;44109;52.398;7.024;2023-12-14T08:13:05;50.03;35.11;66.33;;
58303;Laerm;44109;52.398;7.024;2023-12-14T08:15:33;47.05;34.49;72.39;;
58303;Laerm;44109;52.398;7.024;2023-12-14T08:18:00;45.52;34.39;58.38;;
58303;Laerm;44109;52.398;7.024;2023-12-14T08:20:28;45.79;34.33;61.48;;
58303;Laerm;44109;52.398;7.024;2023-12-14T08:22:56;49.58;35.34;77.26;;
58303;Laerm;44109;52.398;7.024;2023-12-14T08:25:24;46.34;34.86;63.38;;
58303;Laerm;44109;52.398;7.024;2023-12-14T08:27:53;46.77;33.52;68.85;;
58303;Laerm;44109;52.398;7.024;2023-12-14T08:30:20;49.83;34.57;67.05;;
58303;Laerm;44109;52.398;7.024;2023-12-14T08:32:50;47.74;33.93;65.51;;
58303;Laerm;44109;52.398;7.024;2023-12-14T08:35:17;47.85;33.76;68.60;;
58303;Laerm;44109;52.398;7.024;2023-12-14T08:37:45;46.78;34.11;65.21;;
58303;Laerm;44109;52.398;7.024;2023-12-14T08:40:14;47.54;32.89;63.46;;
58303;Laerm;44109;52.398;7.024;2023-12-14T08:42:41;45.00;33.66;57.52;;
58303;Laerm;44109;52.398;7.024;2023-12-14T08:45:10;45.05;33.24;56.89;;
58303;Laerm;44109;52.398;7.024;2023-12-14T08:47:38;45.18;33.52;62.74;;
58303;Laerm;44109;52.398;7.024;2023-12-14T08:50:07;45.66;34.33;60.29;;
58303;Laerm;44109;52.398;7.024;2023-12-14T08:52:35;47.58;33.78;60.25;;
58303;Laerm;44109;52.398;7.024;2023-12-14T08:55:03;45.22;33.67;60.67;;
58303;Laerm;44109;52.398;7.024;2023-12-14T08:57:32;48.29;33.18;69.32;;
58303;Laerm;44109;52.398;7.024;2023-12-14T09:00:00;44.33;33.76;57.49;;
58303;Laerm;44109;52.398;7.024;2023-12-14T09:02:30;45.83;35.55;57.64;;
58303;Laerm;44109;52.398;7.024;2023-12-14T09:04:57;46.51;40.47;62.35;;
58303;Laerm;44109;52.398;7.024;2023-12-14T09:07:25;47.56;39.78;65.89;;
58303;Laerm;44109;52.398;7.024;2023-12-14T09:09:52;47.13;40.18;62.38;;
58303;Laerm;44109;52.398;7.024;2023-12-14T09:12:20;46.66;40.57;57.96;;
58303;Laerm;44109;52.398;7.024;2023-12-14T09:14:49;48.55;41.50;74.29;;
58303;Laerm;44109;52.398;7.024;2023-12-14T09:17:16;47.50;41.13;62.64;;
58303;Laerm;44109;52.398;7.024;2023-12-14T09:19:44;47.29;41.08;61.42;;
58303;Laerm;44109;52.398;7.024;2023-12-14T09:22:12;49.05;41.86;72.49;;
58303;Laerm;44109;52.398;7.024;2023-12-14T09:24:39;49.12;41.67;75.21;;
58303;Laerm;44109;52.398;7.024;2023-12-14T09:27:07;47.80;41.78;66.66;;
58303;Laerm;44109;52.398;7.024;2023-12-14T09:29:34;52.71;41.53;78.10;;
58303;Laerm;44109;52.398;7.024;2023-12-14T09:32:04;47.46;41.29;66.45;;
58303;Laerm;44109;52.398;7.024;2023-12-14T09:34:32;49.32;41.56;67.81;;
58303;Laerm;44109;52.398;7.024;2023-12-14T09:37:00;48.99;41.03;71.40;;
58303;Laerm;44109;52.398;7.024;2023-12-14T09:39:27;47.58;41.34;70.46;;
58303;Laerm;44109;52.398;7.024;2023-12-14T09:42:02;47.65;41.44;67.23;;
58303;Laerm;44109;52.398;7.024;2023-12-14T09:44:32;48.17;41.60;64.09;;
58303;Laerm;44109;52.398;7.024;2023-12-14T09:47:00;48.16;42.00;67.32;;
58303;Laerm;44109;52.398;7.024;2023-12-14T09:49:30;47.57;41.08;61.00;;
58303;Laerm;44109;52.398;7.024;2023-12-14T09:51:58;47.60;41.60;57.96;;
58303;Laerm;44109;52.398;7.024;2023-12-14T09:54:27;47.96;41.71;64.08;;
58303;Laerm;44109;52.398;7.024;2023-12-14T09:56:55;48.26;42.81;61.70;;
58303;Laerm;44109;52.398;7.024;2023-12-14T09:59:22;47.34;41.55;57.80;;
58303;Laerm;44109;52.398;7.024;2023-12-14T10:01:50;47.19;41.03;57.83;;
58303;Laerm;44109;52.398;7.024;2023-12-14T10:04:19;47.69;41.71;70.47;;
58303;Laerm;44109;52.398;7.024;2023-12-14T10:06:49;46.89;41.88;57.37;;
58303;Laerm;44109;52.398;7.024;2023-12-14T10:09:23;47.36;41.65;63.07;;
58303;Laerm;44109;52.398;7.024;2023-12-14T10:12:03;48.48;41.66;68.98;;
58303;Laerm;44109;52.398;7.024;2023-12-14T10:14:32;49.17;37.10;69.00;;
58303;Laerm;44109;52.398;7.024;2023-12-14T10:17:16;45.44;34.62;57.67;;
58303;Laerm;44109;52.398;7.024;2023-12-14T10:19:44;49.67;34.16;72.14;;
58303;Laerm;44109;52.398;7.024;2023-12-14T10:22:15;47.08;35.28;60.72;;
58303;Laerm;44109;52.398;7.024;2023-12-14T10:24:44;44.80;35.04;61.18;;
58303;Laerm;44109;52.398;7.024;2023-12-14T10:27:13;46.53;34.13;70.02;;
58303;Laerm;44109;52.398;7.024;2023-12-14T10:29:42;46.83;35.13;62.54;;
58303;Laerm;44109;52.398;7.024;2023-12-14T10:32:11;48.95;33.67;71.55;;
58303;Laerm;44109;52.398;7.024;2023-12-14T10:34:38;45.34;34.74;57.53;;
58303;Laerm;44109;52.398;7.024;2023-12-14T10:37:07;45.39;35.07;57.22;;
58303;Laerm;44109;52.398;7.024;2023-12-14T10:39:39;50.82;36.23;73.55;;
58303;Laerm;44109;52.398;7.024;2023-12-14T10:42:11;47.38;38.74;62.30;;
58303;Laerm;44109;52.398;7.024;2023-12-14T10:44:41;46.10;38.71;57.68;;
58303;Laerm;44109;52.398;7.024;2023-12-14T10:47:09;48.14;34.75;72.53;;
58303;Laerm;44109;52.398;7.024;2023-12-14T10:49:37;48.71;35.30;73.65;;
58303;Laerm;44109;52.398;7.024;2023-12-14T10:52:05;47.81;35.07;63.08;;
58303;Laerm;44109;52.398;7.024;2023-12-14T10:54:37;46.92;34.95;66.46;;
58303;Laerm;44109;52.398;7.024;2023-12-14T10:57:06;47.67;36.14;66.38;;
58303;Laerm;44109;52.398;7.024;2023-12-14T10:59:34;47.35;35.03;63.40;;
58303;Laerm;44109;52.398;7.024;2023-12-14T11:02:07;48.05;35.92;69.17;;
58303;Laerm;44109;52.398;7.024;2023-12-14T11:04:55;46.95;34.95;68.97;;
58303;Laerm;44109;52.398;7.024;2023-12-14T11:07:47;45.96;35.17;57.23;;
58303;Laerm;44109;52.398;7.024;2023-12-14T11:10:22;48.11;36.88;75.89;;
58303;Laerm;44109;52.398;7.024;2023-12-14T11:12:54;47.61;34.48;67.32;;
58303;Laerm;44109;52.398;7.024;2023-12-14T11:15:23;48.04;34.17;69.80;;
58303;Laerm;44109;52.398;7.024;2023-12-14T11:18:26;45.48;34.19;67.90;;
58303;Laerm;44109;52.398;7.024;2023-12-14T11:20:56;47.26;34.27;70.85;;
58303;Laerm;44109;52.398;7.024;2023-12-14T11:23:36;45.35;34.63;59.17;;
58303;Laerm;44109;52.398;7.024;2023-12-14T11:26:09;47.67;34.31;65.36;;
58303;Laerm;44109;52.398;7.024;2023-12-14T11:28:39;46.32;35.26;56.66;;
58303;Laerm;44109;52.398;7.024;2023-12-14T11:31:10;45.87;34.39;66.50;;
58303;Laerm;44109;52.398;7.024;2023-12-14T11:33:38;45.98;34.96;61.86;;
58303;Laerm;44109;52.398;7.024;2023-12-14T11:36:06;48.30;34.17;72.72;;
58303;Laerm;44109;52.398;7.024;2023-12-14T11:38:35;45.11;34.42;64.53;;
58303;Laerm;44109;52.398;7.024;2023-12-14T11:41:03;46.32;35.08;67.52;;
58303;Laerm;44109;52.398;7.024;2023-12-14T11:43:40;45.50;34.38;57.63;;
58303;Laerm;44109;52.398;7.024;2023-12-14T11:46:08;47.77;34.26;68.32;;
58303;Laerm;44109;52.398;7.024;2023-12-14T11:48:36;45.90;34.17;66.12;;
58303;Laerm;44109;52.398;7.024;2023-12-14T11:51:04;45.87;33.94;67.32;;
58303;Laerm;44109;52.398;7.024;2023-12-14T11:53:32;45.59;34.27;61.30;;
58303;Laerm;44109;52.398;7.024;2023-12-14T11:56:05;47.04;34.57;65.51;;
58303;Laerm;44109;52.398;7.024;2023-12-14T11:58:33;45.02;33.91;57.13;;
58303;Laerm;44109;52.398;7.024;2023-12-14T12:01:13;48.69;32.99;68.42;;
58303;Laerm;44109;52.398;7.024;2023-12-14T12:03:41;45.16;34.47;57.17;;
58303;Laerm;44109;52.398;7.024;2023-12-14T12:06:20;45.13;34.66;59.57;;
58303;Laerm;44109;52.398;7.024;2023-12-14T12:08:49;45.12;33.98;57.15;;
58303;Laerm;44109;52.398;7.024;2023-12-14T12:11:17;45.32;35.37;57.08;;
58303;Laerm;44109;52.398;7.024;2023-12-14T12:13:50;44.94;34.46;57.14;;
58303;Laerm;44109;52.398;7.024;2023-12-14T12:16:19;48.63;34.72;72.32;;
58303;Laerm;44109;52.398;7.024;2023-12-14T12:18:47;45.73;34.14;67.63;;
58303;Laerm;44109;52.398;7.024;2023-12-14T12:21:16;44.97;35.07;64.26;;
58303;Laerm;44109;52.398;7.024;2023-12-14T12:23:44;44.72;33.50;57.01;;
58303;Laerm;44109;52.398;7.024;2023-12-14T12:26:12;45.51;34.14;58.08;;
58303;Laerm;44109;52.398;7.024;2023-12-14T12:28:39;44.79;34.48;57.10;;
58303;Laerm;44109;52.398;7.024;2023-12-14T12:31:07;44.90;35.44;56.95;;
58303;Laerm;44109;52.398;7.024;2023-12-14T12:33:36;46.69;34.74;69.02;;
58303;Laerm;44109;52.398;7.024;2023-12-14T12:36:06;44.80;33.87;57.33;;
58303;Laerm;44109;52.398;7.024;2023-12-14T12:38:33;45.44;34.60;57.22;;
58303;Laerm;44109;52.398;7.024;2023-12-14T12:41:01;45.52;34.54;58.94;;
58303;Laerm;44109;52.398;7.024;2023-12-14T12:43:28;46.59;35.24;67.82;;
58303;Laerm;44109;52.398;7.024;2023-12-14T12:45:56;56.33;34.65;78.92;;
58303;Laerm;44109;52.398;7.024;2023-12-14T12:48:24;46.81;34.56;65.14;;
58303;Laerm;44109;52.398;7.024;2023-12-14T12:50:54;46.56;36.33;59.18;;
58303;Laerm;44109;52.398;7.024;2023-12-14T12:53:22;44.76;34.77;57.10;;
58303;Laerm;44109;52.398;7.024;2023-12-14T12:55:49;44.39;34.21;57.29;;
58303;Laerm;44109;52.398;7.024;2023-12-14T12:58:17;44.73;34.44;56.97;;
58303;Laerm;44109;52.398;7.024;2023-12-14T13:00:44;45.67;33.62;68.23;;
58303;Laerm;44109;52.398;7.024;2023-12-14T13:03:12;49.05;35.04;77.57;;
58303;Laerm;44109;52.398;7.024;2023-12-14T13:05:39;45.07;33.41;60.76;;
58303;Laerm;44109;52.398;7.024;2023-12-14T13:08:09;45.11;35.21;65.57;;
58303;Laerm;44109;52.398;7.024;2023-12-14T13:10:37;45.63;34.33;69.45;;
58303;Laerm;44109;52.398;7.024;2023-12-14T13:13:05;44.98;33.91;62.00;;
58303;Laerm;44109;52.398;7.024;2023-12-14T13:15:34;45.28;34.34;64.74;;
58303;Laerm;44109;52.398;7.024;2023-12-14T13:18:02;47.70;35.77;61.94;;
58303;Laerm;44109;52.398;7.024;2023-12-14T13:20:30;47.51;34.94;60.16;;
58303;Laerm;44109;52.398;7.024;2023-12-14T13:22:57;55.88;35.08;80.61;;
58303;Laerm;44109;52.398;7.024;2023-12-14T13:25:27;46.54;35.25;61.36;;
58303;Laerm;44109;52.398;7.024;2023-12-14T13:27:54;45.81;35.39;61.21;;
58303;Laerm;44109;52.398;7.024;2023-12-14T13:30:22;45.57;35.10;60.00;;
58303;Laerm;44109;52.398;7.024;2023-12-14T13:32:50;44.63;34.44;57.21;;
58303;Laerm;44109;52.398;7.024;2023-12-14T13:35:20;44.51;34.08;56.99;;
58303;Laerm;44109;52.398;7.024;2023-12-14T13:37:48;44.88;34.60;57.10;;
58303;Laerm;44109;52.398;7.024;2023-12-14T13:40:16;45.09;34.92;57.76;;
58303;Laerm;44109;52.398;7.024;2023-12-14T13:42:46;45.19;34.32;58.20;;
58303;Laerm;44109;52.398;7.024;2023-12-14T13:45:13;44.86;35.66;56.59;;
58303;Laerm;44109;52.398;7.024;2023-12-14T13:47:41;44.68;35.17;56.99;;
58303;Laerm;44109;52.398;7.024;2023-12-14T13:50:09;45.26;35.38;63.32;;
58303;Laerm;44109;52.398;7.024;2023-12-14T13:52:37;45.01;35.15;57.22;;